sensor_id;sensor_type;location;lat;lon;timestamp;P1;durP1;ratioP1;P2;durP2;ratioP2
68089;SDS011;54880;50.986;6.990;2023-04-03T00:01:15;10.20;;;4.90;;
68089;SDS011;54880;50.986;6.990;2023-04-03T00:03:41;10.00;;;4.38;;
68089;SDS011;54880;50.986;6.990;2023-04-03T00:06:07;9.27;;;4.43;;
68089;SDS011;54880;50.986;6.990;2023-04-03T00:08:33;9.55;;;4.47;;
68089;SDS011;54880;50.986;6.990;2023-04-03T00:10:59;8.57;;;4.47;;
68089;SDS011;54880;50.986;6.990;2023-04-03T00:13:24;8.67;;;4.30;;
68089;SDS011;54880;50.986;6.990;2023-04-03T00:15:50;13.03;;;4.67;;
68089;SDS011;54880;50.986;6.990;2023-04-03T00:18:15;11.65;;;4.38;;
68089;SDS011;54880;50.986;6.990;2023-04-03T00:20:40;8.37;;;4.10;;
68089;SDS011;54880;50.986;6.990;2023-04-03T00:23:06;8.13;;;4.23;;
68089;SDS011;54880;50.986;6.990;2023-04-03T00:25:31;9.93;;;4.40;;
68089;SDS011;54880;50.986;6.990;2023-04-03T00:27:56;8.97;;;4.37;;
68089;SDS011;54880;50.986;6.990;2023-04-03T00:30:22;9.63;;;4.40;;
68089;SDS011;54880;50.986;6.990;2023-04-03T00:32:48;8.60;;;4.10;;
68089;SDS011;54880;50.986;6.990;2023-04-03T00:35:13;8.63;;;4.57;;
68089;SDS011;54880;50.986;6.990;2023-04-03T00:37:41;9.13;;;4.30;;
68089;SDS011;54880;50.986;6.990;2023-04-03T00:40:08;8.53;;;4.17;;
68089;SDS011;54880;50.986;6.990;2023-04-03T00:42:33;8.88;;;4.30;;
68089;SDS011;54880;50.986;6.990;2023-04-03T00:47:25;9.55;;;4.40;;
68089;SDS011;54880;50.986;6.990;2023-04-03T00:49:51;8.67;;;4.30;;
68089;SDS011;54880;50.986;6.990;2023-04-03T00:52:17;8.30;;;3.78;;
68089;SDS011;54880;50.986;6.990;2023-04-03T00:54:45;7.60;;;3.75;;
68089;SDS011;54880;50.986;6.990;2023-04-03T00:57:11;7.00;;;3.60;;
68089;SDS011;54880;50.986;6.990;2023-04-03T00:59:38;9.23;;;3.90;;
68089;SDS011;54880;50.986;6.990;2023-04-03T01:02:05;7.67;;;3.83;;
68089;SDS011;54880;50.986;6.990;2023-04-03T01:04:32;8.63;;;3.88;;
68089;SDS011;54880;50.986;6.990;2023-04-03T01:07:00;9.53;;;3.60;;
68089;SDS011;54880;50.986;6.990;2023-04-03T01:09:26;9.98;;;3.80;;
68089;SDS011;54880;50.986;6.990;2023-04-03T01:11:53;10.98;;;3.95;;
68089;SDS011;54880;50.986;6.990;2023-04-03T01:14:18;11.17;;;3.90;;
68089;SDS011;54880;50.986;6.990;2023-04-03T01:16:52;7.00;;;3.53;;
68089;SDS011;54880;50.986;6.990;2023-04-03T01:19:17;7.65;;;3.75;;
68089;SDS011;54880;50.986;6.990;2023-04-03T01:22:00;8.02;;;3.50;;
68089;SDS011;54880;50.986;6.990;2023-04-03T01:24:35;7.55;;;3.53;;
68089;SDS011;54880;50.986;6.990;2023-04-03T01:27:04;7.60;;;3.73;;
68089;SDS011;54880;50.986;6.990;2023-04-03T01:29:30;8.68;;;3.90;;
68089;SDS011;54880;50.986;6.990;2023-04-03T01:31:57;8.90;;;4.10;;
68089;SDS011;54880;50.986;6.990;2023-04-03T01:34:23;7.70;;;3.47;;
68089;SDS011;54880;50.986;6.990;2023-04-03T01:36:49;7.85;;;3.83;;
68089;SDS011;54880;50.986;6.990;2023-04-03T01:39:15;9.13;;;4.10;;
68089;SDS011;54880;50.986;6.990;2023-04-03T01:41:41;10.60;;;3.90;;
68089;SDS011;54880;50.986;6.990;2023-04-03T01:44:12;7.20;;;3.65;;
68089;SDS011;54880;50.986;6.990;2023-04-03T01:46:38;7.40;;;3.63;;
68089;SDS011;54880;50.986;6.990;2023-04-03T01:49:03;9.13;;;4.00;;
68089;SDS011;54880;50.986;6.990;2023-04-03T01:51:29;9.33;;;3.73;;
68089;SDS011;54880;50.986;6.990;2023-04-03T01:53:55;10.10;;;3.65;;
68089;SDS011;54880;50.986;6.990;2023-04-03T01:56:20;9.77;;;3.57;;
68089;SDS011;54880;50.986;6.990;2023-04-03T01:58:46;10.87;;;3.97;;
68089;SDS011;54880;50.986;6.990;2023-04-03T02:01:11;8.38;;;3.60;;
68089;SDS011;54880;50.986;6.990;2023-04-03T02:03:36;8.87;;;3.70;;
68089;SDS011;54880;50.986;6.990;2023-04-03T02:06:02;8.23;;;3.80;;
68089;SDS011;54880;50.986;6.990;2023-04-03T02:08:27;7.07;;;3.60;;
68089;SDS011;54880;50.986;6.990;2023-04-03T02:10:53;8.70;;;3.90;;
68089;SDS011;54880;50.986;6.990;2023-04-03T02:13:18;8.50;;;4.00;;
68089;SDS011;54880;50.986;6.990;2023-04-03T02:15:44;9.20;;;4.13;;
68089;SDS011;54880;50.986;6.990;2023-04-03T02:18:10;9.93;;;4.37;;
68089;SDS011;54880;50.986;6.990;2023-04-03T02:20:35;7.57;;;4.07;;
68089;SDS011;54880;50.986;6.990;2023-04-03T02:23:01;7.70;;;3.87;;
68089;SDS011;54880;50.986;6.990;2023-04-03T02:25:26;9.03;;;3.93;;
68089;SDS011;54880;50.986;6.990;2023-04-03T02:27:51;8.63;;;4.30;;
68089;SDS011;54880;50.986;6.990;2023-04-03T02:30:17;8.73;;;3.70;;
68089;SDS011;54880;50.986;6.990;2023-04-03T02:32:42;7.77;;;3.87;;
68089;SDS011;54880;50.986;6.990;2023-04-03T02:35:08;7.73;;;3.77;;
68089;SDS011;54880;50.986;6.990;2023-04-03T02:37:34;8.93;;;4.10;;
68089;SDS011;54880;50.986;6.990;2023-04-03T02:39:59;8.38;;;4.05;;
68089;SDS011;54880;50.986;6.990;2023-04-03T02:42:26;7.97;;;3.60;;
68089;SDS011;54880;50.986;6.990;2023-04-03T02:44:51;8.10;;;3.97;;
68089;SDS011;54880;50.986;6.990;2023-04-03T02:47:16;10.30;;;3.88;;
68089;SDS011;54880;50.986;6.990;2023-04-03T02:49:41;9.93;;;3.80;;
68089;SDS011;54880;50.986;6.990;2023-04-03T02:52:10;8.02;;;3.80;;
68089;SDS011;54880;50.986;6.990;2023-04-03T02:54:35;7.68;;;3.65;;
68089;SDS011;54880;50.986;6.990;2023-04-03T02:57:04;9.60;;;4.10;;
68089;SDS011;54880;50.986;6.990;2023-04-03T02:59:29;10.03;;;3.50;;
68089;SDS011;54880;50.986;6.990;2023-04-03T03:01:55;9.90;;;4.10;;
68089;SDS011;54880;50.986;6.990;2023-04-03T03:04:20;7.97;;;3.93;;
68089;SDS011;54880;50.986;6.990;2023-04-03T03:06:46;8.23;;;3.80;;
68089;SDS011;54880;50.986;6.990;2023-04-03T03:09:11;8.03;;;3.50;;
68089;SDS011;54880;50.986;6.990;2023-04-03T03:11:38;7.30;;;3.70;;
68089;SDS011;54880;50.986;6.990;2023-04-03T03:14:03;8.70;;;3.73;;
68089;SDS011;54880;50.986;6.990;2023-04-03T03:16:28;8.40;;;4.00;;
68089;SDS011;54880;50.986;6.990;2023-04-03T03:18:55;8.95;;;3.90;;
68089;SDS011;54880;50.986;6.990;2023-04-03T03:21:20;8.30;;;3.73;;
68089;SDS011;54880;50.986;6.990;2023-04-03T03:23:46;7.50;;;3.70;;
68089;SDS011;54880;50.986;6.990;2023-04-03T03:26:11;10.20;;;3.83;;
68089;SDS011;54880;50.986;6.990;2023-04-03T03:28:37;8.57;;;3.40;;
68089;SDS011;54880;50.986;6.990;2023-04-03T03:31:04;8.02;;;3.50;;
68089;SDS011;54880;50.986;6.990;2023-04-03T03:33:31;8.73;;;3.20;;
68089;SDS011;54880;50.986;6.990;2023-04-03T03:35:56;8.20;;;3.30;;
68089;SDS011;54880;50.986;6.990;2023-04-03T03:38:22;5.80;;;2.90;;
68089;SDS011;54880;50.986;6.990;2023-04-03T03:40:48;9.27;;;3.55;;
68089;SDS011;54880;50.986;6.990;2023-04-03T03:43:14;9.02;;;2.95;;
68089;SDS011;54880;50.986;6.990;2023-04-03T03:45:39;9.50;;;3.00;;
68089;SDS011;54880;50.986;6.990;2023-04-03T03:48:05;7.67;;;3.13;;
68089;SDS011;54880;50.986;6.990;2023-04-03T03:50:30;6.43;;;2.80;;
68089;SDS011;54880;50.986;6.990;2023-04-03T03:52:55;6.68;;;2.95;;
68089;SDS011;54880;50.986;6.990;2023-04-03T03:55:21;9.05;;;2.88;;
68089;SDS011;54880;50.986;6.990;2023-04-03T03:57:50;9.27;;;2.72;;
68089;SDS011;54880;50.986;6.990;2023-04-03T04:00:17;6.70;;;2.60;;
68089;SDS011;54880;50.986;6.990;2023-04-03T04:02:48;7.15;;;2.80;;
68089;SDS011;54880;50.986;6.990;2023-04-03T04:05:16;7.20;;;2.60;;
68089;SDS011;54880;50.986;6.990;2023-04-03T04:07:42;9.03;;;2.70;;
68089;SDS011;54880;50.986;6.990;2023-04-03T04:10:07;9.67;;;2.90;;
68089;SDS011;54880;50.986;6.990;2023-04-03T04:12:33;6.17;;;2.70;;
68089;SDS011;54880;50.986;6.990;2023-04-03T04:15:00;8.02;;;2.55;;
68089;SDS011;54880;50.986;6.990;2023-04-03T04:17:27;6.75;;;2.40;;
68089;SDS011;54880;50.986;6.990;2023-04-03T04:19:52;7.47;;;2.67;;
68089;SDS011;54880;50.986;6.990;2023-04-03T04:22:17;6.93;;;2.90;;
68089;SDS011;54880;50.986;6.990;2023-04-03T04:24:43;7.73;;;2.30;;
68089;SDS011;54880;50.986;6.990;2023-04-03T04:27:11;7.57;;;2.30;;
68089;SDS011;54880;50.986;6.990;2023-04-03T04:29:37;8.07;;;2.60;;
68089;SDS011;54880;50.986;6.990;2023-04-03T04:32:04;9.63;;;2.78;;
68089;SDS011;54880;50.986;6.990;2023-04-03T04:34:29;6.53;;;2.30;;
68089;SDS011;54880;50.986;6.990;2023-04-03T04:36:55;9.88;;;2.45;;
68089;SDS011;54880;50.986;6.990;2023-04-03T04:39:21;8.57;;;2.77;;
68089;SDS011;54880;50.986;6.990;2023-04-03T04:41:46;11.47;;;2.43;;
68089;SDS011;54880;50.986;6.990;2023-04-03T04:44:12;7.50;;;2.50;;
68089;SDS011;54880;50.986;6.990;2023-04-03T04:46:38;7.13;;;2.40;;
68089;SDS011;54880;50.986;6.990;2023-04-03T04:49:04;7.75;;;2.47;;
68089;SDS011;54880;50.986;6.990;2023-04-03T04:51:30;6.83;;;2.60;;
68089;SDS011;54880;50.986;6.990;2023-04-03T04:53:55;8.88;;;2.70;;
68089;SDS011;54880;50.986;6.990;2023-04-03T04:56:21;8.60;;;2.60;;
68089;SDS011;54880;50.986;6.990;2023-04-03T04:58:47;6.15;;;2.75;;
68089;SDS011;54880;50.986;6.990;2023-04-03T05:01:15;6.97;;;2.17;;
68089;SDS011;54880;50.986;6.990;2023-04-03T05:03:51;6.32;;;2.38;;
68089;SDS011;54880;50.986;6.990;2023-04-03T05:06:17;7.03;;;2.50;;
68089;SDS011;54880;50.986;6.990;2023-04-03T05:08:42;9.90;;;2.10;;
68089;SDS011;54880;50.986;6.990;2023-04-03T05:11:08;7.78;;;2.30;;
68089;SDS011;54880;50.986;6.990;2023-04-03T05:13:34;7.10;;;2.27;;
68089;SDS011;54880;50.986;6.990;2023-04-03T05:15:59;7.05;;;2.60;;
68089;SDS011;54880;50.986;6.990;2023-04-03T05:18:25;6.50;;;2.30;;
68089;SDS011;54880;50.986;6.990;2023-04-03T05:20:52;6.83;;;2.40;;
68089;SDS011;54880;50.986;6.990;2023-04-03T05:23:18;6.95;;;2.53;;
68089;SDS011;54880;50.986;6.990;2023-04-03T05:25:45;6.25;;;2.50;;
68089;SDS011;54880;50.986;6.990;2023-04-03T05:28:12;8.07;;;2.42;;
68089;SDS011;54880;50.986;6.990;2023-04-03T05:30:37;8.07;;;3.20;;
68089;SDS011;54880;50.986;6.990;2023-04-03T05:33:03;9.65;;;3.47;;
68089;SDS011;54880;50.986;6.990;2023-04-03T05:35:44;7.30;;;2.50;;
68089;SDS011;54880;50.986;6.990;2023-04-03T05:38:14;6.50;;;2.80;;
68089;SDS011;54880;50.986;6.990;2023-04-03T05:40:40;9.33;;;2.37;;
68089;SDS011;54880;50.986;6.990;2023-04-03T05:43:06;7.65;;;2.33;;
68089;SDS011;54880;50.986;6.990;2023-04-03T05:45:34;8.45;;;2.53;;
68089;SDS011;54880;50.986;6.990;2023-04-03T05:48:00;8.10;;;2.07;;
68089;SDS011;54880;50.986;6.990;2023-04-03T05:50:26;6.18;;;1.98;;
68089;SDS011;54880;50.986;6.990;2023-04-03T05:52:52;8.25;;;2.00;;
68089;SDS011;54880;50.986;6.990;2023-04-03T05:55:19;7.53;;;2.27;;
68089;SDS011;54880;50.986;6.990;2023-04-03T05:57:45;8.18;;;2.75;;
68089;SDS011;54880;50.986;6.990;2023-04-03T06:00:12;8.45;;;2.25;;
68089;SDS011;54880;50.986;6.990;2023-04-03T06:02:39;6.18;;;2.28;;
68089;SDS011;54880;50.986;6.990;2023-04-03T06:05:06;7.10;;;2.38;;
68089;SDS011;54880;50.986;6.990;2023-04-03T06:07:33;7.32;;;1.90;;
68089;SDS011;54880;50.986;6.990;2023-04-03T06:09:59;10.20;;;2.87;;
68089;SDS011;54880;50.986;6.990;2023-04-03T06:12:25;8.45;;;2.67;;
68089;SDS011;54880;50.986;6.990;2023-04-03T06:14:50;6.17;;;2.17;;
68089;SDS011;54880;50.986;6.990;2023-04-03T06:17:16;17.67;;;3.23;;
68089;SDS011;54880;50.986;6.990;2023-04-03T06:19:43;8.35;;;2.60;;
68089;SDS011;54880;50.986;6.990;2023-04-03T06:22:08;7.70;;;2.70;;
68089;SDS011;54880;50.986;6.990;2023-04-03T06:24:34;8.15;;;2.25;;
68089;SDS011;54880;50.986;6.990;2023-04-03T06:27:00;9.43;;;2.40;;
68089;SDS011;54880;50.986;6.990;2023-04-03T06:29:25;7.10;;;1.98;;
68089;SDS011;54880;50.986;6.990;2023-04-03T06:31:51;5.80;;;2.20;;
68089;SDS011;54880;50.986;6.990;2023-04-03T06:34:16;6.82;;;2.15;;
68089;SDS011;54880;50.986;6.990;2023-04-03T06:36:43;6.88;;;2.00;;
68089;SDS011;54880;50.986;6.990;2023-04-03T06:39:12;6.63;;;2.00;;
68089;SDS011;54880;50.986;6.990;2023-04-03T06:41:38;7.90;;;2.22;;
68089;SDS011;54880;50.986;6.990;2023-04-03T06:44:03;7.87;;;2.83;;
68089;SDS011;54880;50.986;6.990;2023-04-03T06:46:29;9.15;;;2.13;;
68089;SDS011;54880;50.986;6.990;2023-04-03T06:48:54;8.20;;;2.00;;
68089;SDS011;54880;50.986;6.990;2023-04-03T06:51:21;9.10;;;2.03;;
68089;SDS011;54880;50.986;6.990;2023-04-03T06:53:47;7.10;;;1.85;;
68089;SDS011;54880;50.986;6.990;2023-04-03T06:56:13;8.88;;;2.05;;
68089;SDS011;54880;50.986;6.990;2023-04-03T06:58:39;5.47;;;1.70;;
68089;SDS011;54880;50.986;6.990;2023-04-03T07:01:07;6.23;;;1.93;;
68089;SDS011;54880;50.986;6.990;2023-04-03T07:03:33;8.25;;;1.85;;
68089;SDS011;54880;50.986;6.990;2023-04-03T07:05:58;8.57;;;1.50;;
68089;SDS011;54880;50.986;6.990;2023-04-03T07:08:24;7.37;;;2.03;;
68089;SDS011;54880;50.986;6.990;2023-04-03T07:10:51;6.28;;;1.60;;
68089;SDS011;54880;50.986;6.990;2023-04-03T07:13:16;5.65;;;1.80;;
68089;SDS011;54880;50.986;6.990;2023-04-03T07:15:41;7.85;;;1.80;;
68089;SDS011;54880;50.986;6.990;2023-04-03T07:18:07;6.80;;;1.70;;
68089;SDS011;54880;50.986;6.990;2023-04-03T07:20:32;6.60;;;1.53;;
68089;SDS011;54880;50.986;6.990;2023-04-03T07:22:57;6.97;;;1.50;;
68089;SDS011;54880;50.986;6.990;2023-04-03T07:25:23;7.77;;;1.57;;
68089;SDS011;54880;50.986;6.990;2023-04-03T07:27:48;5.47;;;1.40;;
68089;SDS011;54880;50.986;6.990;2023-04-03T07:30:14;5.57;;;1.40;;
68089;SDS011;54880;50.986;6.990;2023-04-03T07:32:39;5.97;;;1.65;;
68089;SDS011;54880;50.986;6.990;2023-04-03T07:35:05;6.17;;;1.50;;
68089;SDS011;54880;50.986;6.990;2023-04-03T07:37:30;6.70;;;1.47;;
68089;SDS011;54880;50.986;6.990;2023-04-03T07:39:57;5.60;;;1.30;;
68089;SDS011;54880;50.986;6.990;2023-04-03T07:42:24;5.80;;;1.63;;
68089;SDS011;54880;50.986;6.990;2023-04-03T07:44:49;6.00;;;1.40;;
68089;SDS011;54880;50.986;6.990;2023-04-03T07:47:14;7.87;;;1.67;;
68089;SDS011;54880;50.986;6.990;2023-04-03T07:49:41;6.50;;;1.55;;
68089;SDS011;54880;50.986;6.990;2023-04-03T07:52:07;6.07;;;1.77;;
68089;SDS011;54880;50.986;6.990;2023-04-03T07:54:33;6.25;;;1.85;;
68089;SDS011;54880;50.986;6.990;2023-04-03T07:56:59;6.73;;;1.30;;
68089;SDS011;54880;50.986;6.990;2023-04-03T07:59:24;6.13;;;1.50;;
68089;SDS011;54880;50.986;6.990;2023-04-03T08:01:49;8.87;;;1.47;;
68089;SDS011;54880;50.986;6.990;2023-04-03T08:04:15;6.10;;;1.20;;
68089;SDS011;54880;50.986;6.990;2023-04-03T08:06:40;8.67;;;1.20;;
68089;SDS011;54880;50.986;6.990;2023-04-03T08:09:05;5.47;;;1.17;;
68089;SDS011;54880;50.986;6.990;2023-04-03T08:11:30;5.33;;;1.20;;
68089;SDS011;54880;50.986;6.990;2023-04-03T08:13:56;7.47;;;1.40;;
68089;SDS011;54880;50.986;6.990;2023-04-03T08:16:22;7.00;;;1.50;;
68089;SDS011;54880;50.986;6.990;2023-04-03T08:18:48;10.15;;;2.17;;
68089;SDS011;54880;50.986;6.990;2023-04-03T08:21:13;6.13;;;1.37;;
68089;SDS011;54880;50.986;6.990;2023-04-03T08:23:39;5.00;;;1.40;;
68089;SDS011;54880;50.986;6.990;2023-04-03T08:26:09;6.28;;;1.80;;
68089;SDS011;54880;50.986;6.990;2023-04-03T08:28:35;7.03;;;1.55;;
68089;SDS011;54880;50.986;6.990;2023-04-03T08:31:04;5.13;;;1.20;;
68089;SDS011;54880;50.986;6.990;2023-04-03T08:33:31;5.10;;;1.40;;
68089;SDS011;54880;50.986;6.990;2023-04-03T08:35:56;5.50;;;1.27;;
68089;SDS011;54880;50.986;6.990;2023-04-03T08:38:21;5.47;;;1.13;;
68089;SDS011;54880;50.986;6.990;2023-04-03T08:40:46;6.93;;;1.30;;
68089;SDS011;54880;50.986;6.990;2023-04-03T08:43:30;5.80;;;1.20;;
68089;SDS011;54880;50.986;6.990;2023-04-03T08:45:58;6.90;;;1.20;;
68089;SDS011;54880;50.986;6.990;2023-04-03T08:48:46;8.20;;;2.03;;
68089;SDS011;54880;50.986;6.990;2023-04-03T08:51:14;6.97;;;1.25;;
68089;SDS011;54880;50.986;6.990;2023-04-03T08:53:41;4.47;;;1.20;;
68089;SDS011;54880;50.986;6.990;2023-04-03T08:56:09;7.03;;;1.40;;
68089;SDS011;54880;50.986;6.990;2023-04-03T09:01:21;4.60;;;1.20;;
68089;SDS011;54880;50.986;6.990;2023-04-03T09:03:48;4.78;;;1.10;;
68089;SDS011;54880;50.986;6.990;2023-04-03T09:06:20;7.33;;;1.30;;
68089;SDS011;54880;50.986;6.990;2023-04-03T09:08:50;5.15;;;1.25;;
68089;SDS011;54880;50.986;6.990;2023-04-03T09:11:26;8.13;;;1.25;;
68089;SDS011;54880;50.986;6.990;2023-04-03T09:13:57;4.90;;;1.00;;
68089;SDS011;54880;50.986;6.990;2023-04-03T09:16:32;5.38;;;0.95;;
68089;SDS011;54880;50.986;6.990;2023-04-03T09:19:21;6.17;;;1.10;;
68089;SDS011;54880;50.986;6.990;2023-04-03T09:21:47;5.20;;;0.98;;
68089;SDS011;54880;50.986;6.990;2023-04-03T09:24:13;6.13;;;1.02;;
68089;SDS011;54880;50.986;6.990;2023-04-03T09:26:48;4.60;;;1.07;;
68089;SDS011;54880;50.986;6.990;2023-04-03T09:29:15;6.55;;;1.30;;
68089;SDS011;54880;50.986;6.990;2023-04-03T09:31:43;5.93;;;1.38;;
68089;SDS011;54880;50.986;6.990;2023-04-03T09:34:12;6.95;;;1.88;;
68089;SDS011;54880;50.986;6.990;2023-04-03T09:36:41;5.22;;;1.20;;
68089;SDS011;54880;50.986;6.990;2023-04-03T09:39:11;5.07;;;1.23;;
68089;SDS011;54880;50.986;6.990;2023-04-03T09:41:37;5.10;;;1.30;;
68089;SDS011;54880;50.986;6.990;2023-04-03T09:44:02;5.43;;;1.20;;
68089;SDS011;54880;50.986;6.990;2023-04-03T09:46:29;4.00;;;1.00;;
68089;SDS011;54880;50.986;6.990;2023-04-03T09:48:57;8.10;;;1.50;;
68089;SDS011;54880;50.986;6.990;2023-04-03T09:51:27;7.05;;;1.75;;
68089;SDS011;54880;50.986;6.990;2023-04-03T09:53:53;7.18;;;1.30;;
68089;SDS011;54880;50.986;6.990;2023-04-03T09:58:51;5.83;;;1.33;;
68089;SDS011;54880;50.986;6.990;2023-04-03T10:01:21;7.78;;;1.30;;
68089;SDS011;54880;50.986;6.990;2023-04-03T10:03:47;6.05;;;1.60;;
68089;SDS011;54880;50.986;6.990;2023-04-03T10:06:26;6.32;;;1.20;;
68089;SDS011;54880;50.986;6.990;2023-04-03T10:09:02;6.20;;;1.48;;
68089;SDS011;54880;50.986;6.990;2023-04-03T10:11:29;6.63;;;1.50;;
68089;SDS011;54880;50.986;6.990;2023-04-03T10:13:55;6.43;;;1.30;;
68089;SDS011;54880;50.986;6.990;2023-04-03T10:16:25;10.85;;;1.52;;
68089;SDS011;54880;50.986;6.990;2023-04-03T10:18:58;7.00;;;1.30;;
68089;SDS011;54880;50.986;6.990;2023-04-03T10:21:42;5.25;;;1.13;;
68089;SDS011;54880;50.986;6.990;2023-04-03T10:24:11;4.72;;;1.20;;
68089;SDS011;54880;50.986;6.990;2023-04-03T10:34:35;8.43;;;1.20;;
68089;SDS011;54880;50.986;6.990;2023-04-03T10:37:08;5.57;;;1.10;;
68089;SDS011;54880;50.986;6.990;2023-04-03T10:39:45;5.13;;;1.15;;
68089;SDS011;54880;50.986;6.990;2023-04-03T10:42:35;7.32;;;1.35;;
68089;SDS011;54880;50.986;6.990;2023-04-03T10:53:07;5.60;;;1.45;;
68089;SDS011;54880;50.986;6.990;2023-04-03T10:58:04;5.90;;;1.40;;
68089;SDS011;54880;50.986;6.990;2023-04-03T11:00:33;5.50;;;1.02;;
68089;SDS011;54880;50.986;6.990;2023-04-03T11:03:01;8.10;;;1.30;;
68089;SDS011;54880;50.986;6.990;2023-04-03T11:05:34;6.80;;;1.20;;
68089;SDS011;54880;50.986;6.990;2023-04-03T11:08:05;5.15;;;1.10;;
68089;SDS011;54880;50.986;6.990;2023-04-03T11:13:32;3.83;;;1.00;;
68089;SDS011;54880;50.986;6.990;2023-04-03T11:15:50;4.03;;;1.00;;
68089;SDS011;54880;50.986;6.990;2023-04-03T11:21:06;5.88;;;1.10;;
68089;SDS011;54880;50.986;6.990;2023-04-03T11:23:34;4.53;;;0.97;;
68089;SDS011;54880;50.986;6.990;2023-04-03T11:26:10;6.10;;;0.98;;
68089;SDS011;54880;50.986;6.990;2023-04-03T11:28:36;4.97;;;0.95;;
68089;SDS011;54880;50.986;6.990;2023-04-03T11:31:25;6.22;;;1.02;;
68089;SDS011;54880;50.986;6.990;2023-04-03T11:33:49;6.85;;;1.10;;
68089;SDS011;54880;50.986;6.990;2023-04-03T11:36:29;5.27;;;1.10;;
68089;SDS011;54880;50.986;6.990;2023-04-03T11:38:56;5.30;;;1.00;;
68089;SDS011;54880;50.986;6.990;2023-04-03T11:41:30;7.30;;;1.10;;
68089;SDS011;54880;50.986;6.990;2023-04-03T11:44:00;3.97;;;0.90;;
68089;SDS011;54880;50.986;6.990;2023-04-03T11:52:09;5.65;;;1.15;;
68089;SDS011;54880;50.986;6.990;2023-04-03T11:54:36;5.18;;;0.98;;
68089;SDS011;54880;50.986;6.990;2023-04-03T11:59:51;3.20;;;0.80;;
68089;SDS011;54880;50.986;6.990;2023-04-03T12:02:34;4.93;;;1.03;;
68089;SDS011;54880;50.986;6.990;2023-04-03T12:07:52;4.28;;;0.82;;
68089;SDS011;54880;50.986;6.990;2023-04-03T12:10:30;4.18;;;0.80;;
68089;SDS011;54880;50.986;6.990;2023-04-03T12:12:56;3.87;;;0.83;;
68089;SDS011;54880;50.986;6.990;2023-04-03T12:23:23;5.53;;;1.10;;
68089;SDS011;54880;50.986;6.990;2023-04-03T12:25:50;2.83;;;0.77;;
68089;SDS011;54880;50.986;6.990;2023-04-03T12:28:15;3.67;;;0.80;;
68089;SDS011;54880;50.986;6.990;2023-04-03T12:30:40;4.38;;;0.80;;
68089;SDS011;54880;50.986;6.990;2023-04-03T12:33:18;5.15;;;0.90;;
68089;SDS011;54880;50.986;6.990;2023-04-03T12:36:21;4.97;;;0.90;;
68089;SDS011;54880;50.986;6.990;2023-04-03T12:41:13;4.15;;;0.90;;
68089;SDS011;54880;50.986;6.990;2023-04-03T12:46:21;5.93;;;1.00;;
68089;SDS011;54880;50.986;6.990;2023-04-03T12:48:56;4.40;;;1.13;;
68089;SDS011;54880;50.986;6.990;2023-04-03T12:51:44;4.32;;;0.98;;
68089;SDS011;54880;50.986;6.990;2023-04-03T12:54:15;4.45;;;0.80;;
68089;SDS011;54880;50.986;6.990;2023-04-03T12:56:41;4.63;;;1.10;;
68089;SDS011;54880;50.986;6.990;2023-04-03T13:01:44;4.87;;;0.90;;
68089;SDS011;54880;50.986;6.990;2023-04-03T13:04:17;3.88;;;0.88;;
68089;SDS011;54880;50.986;6.990;2023-04-03T13:06:43;5.13;;;1.00;;
68089;SDS011;54880;50.986;6.990;2023-04-03T13:09:21;5.47;;;1.20;;
68089;SDS011;54880;50.986;6.990;2023-04-03T13:11:47;5.68;;;1.08;;
68089;SDS011;54880;50.986;6.990;2023-04-03T13:14:23;5.27;;;1.10;;
68089;SDS011;54880;50.986;6.990;2023-04-03T13:19:20;4.20;;;0.80;;
68089;SDS011;54880;50.986;6.990;2023-04-03T13:21:47;4.80;;;1.02;;
68089;SDS011;54880;50.986;6.990;2023-04-03T13:24:12;4.13;;;1.10;;
68089;SDS011;54880;50.986;6.990;2023-04-03T13:26:38;4.63;;;1.00;;
68089;SDS011;54880;50.986;6.990;2023-04-03T13:29:04;4.60;;;1.33;;
68089;SDS011;54880;50.986;6.990;2023-04-03T13:31:32;5.32;;;1.00;;
68089;SDS011;54880;50.986;6.990;2023-04-03T13:36:25;4.57;;;1.10;;
68089;SDS011;54880;50.986;6.990;2023-04-03T13:41:26;4.93;;;1.10;;
68089;SDS011;54880;50.986;6.990;2023-04-03T13:43:53;4.43;;;0.85;;
68089;SDS011;54880;50.986;6.990;2023-04-03T13:48:45;4.40;;;1.10;;
68089;SDS011;54880;50.986;6.990;2023-04-03T13:53:41;5.40;;;1.10;;
68089;SDS011;54880;50.986;6.990;2023-04-03T13:56:09;4.03;;;0.97;;
68089;SDS011;54880;50.986;6.990;2023-04-03T13:58:35;5.47;;;1.10;;
68089;SDS011;54880;50.986;6.990;2023-04-03T14:01:10;6.25;;;1.30;;
68089;SDS011;54880;50.986;6.990;2023-04-03T14:03:51;7.53;;;1.40;;
68089;SDS011;54880;50.986;6.990;2023-04-03T14:06:16;5.63;;;1.00;;
68089;SDS011;54880;50.986;6.990;2023-04-03T14:08:42;4.20;;;1.10;;
68089;SDS011;54880;50.986;6.990;2023-04-03T14:11:13;5.40;;;1.10;;
68089;SDS011;54880;50.986;6.990;2023-04-03T14:13:38;8.48;;;1.90;;
68089;SDS011;54880;50.986;6.990;2023-04-03T14:16:04;4.53;;;1.10;;
68089;SDS011;54880;50.986;6.990;2023-04-03T14:18:30;4.10;;;1.40;;
68089;SDS011;54880;50.986;6.990;2023-04-03T14:20:55;4.23;;;1.10;;
68089;SDS011;54880;50.986;6.990;2023-04-03T14:23:20;4.33;;;0.90;;
68089;SDS011;54880;50.986;6.990;2023-04-03T14:25:45;4.13;;;1.00;;
68089;SDS011;54880;50.986;6.990;2023-04-03T14:28:16;4.85;;;1.20;;
68089;SDS011;54880;50.986;6.990;2023-04-03T14:30:42;6.65;;;1.30;;
68089;SDS011;54880;50.986;6.990;2023-04-03T14:33:09;5.73;;;1.30;;
68089;SDS011;54880;50.986;6.990;2023-04-03T14:35:36;5.30;;;1.10;;
68089;SDS011;54880;50.986;6.990;2023-04-03T14:38:02;4.22;;;1.13;;
68089;SDS011;54880;50.986;6.990;2023-04-03T14:40:27;6.97;;;1.50;;
68089;SDS011;54880;50.986;6.990;2023-04-03T14:42:52;6.53;;;1.10;;
68089;SDS011;54880;50.986;6.990;2023-04-03T14:45:21;5.03;;;1.40;;
68089;SDS011;54880;50.986;6.990;2023-04-03T14:47:51;7.03;;;1.35;;
68089;SDS011;54880;50.986;6.990;2023-04-03T14:50:18;5.00;;;1.10;;
68089;SDS011;54880;50.986;6.990;2023-04-03T14:52:46;5.30;;;1.10;;
68089;SDS011;54880;50.986;6.990;2023-04-03T14:55:13;5.25;;;1.30;;
68089;SDS011;54880;50.986;6.990;2023-04-03T14:57:39;4.93;;;1.38;;
68089;SDS011;54880;50.986;6.990;2023-04-03T15:00:06;4.90;;;1.30;;
68089;SDS011;54880;50.986;6.990;2023-04-03T15:02:33;4.85;;;1.25;;
68089;SDS011;54880;50.986;6.990;2023-04-03T15:04:59;5.03;;;1.27;;
68089;SDS011;54880;50.986;6.990;2023-04-03T15:07:25;7.75;;;1.63;;
68089;SDS011;54880;50.986;6.990;2023-04-03T15:09:51;4.47;;;1.30;;
68089;SDS011;54880;50.986;6.990;2023-04-03T15:12:17;6.95;;;1.10;;
68089;SDS011;54880;50.986;6.990;2023-04-03T15:14:42;6.03;;;1.13;;
68089;SDS011;54880;50.986;6.990;2023-04-03T15:17:14;4.43;;;1.17;;
68089;SDS011;54880;50.986;6.990;2023-04-03T15:19:40;4.88;;;1.10;;
68089;SDS011;54880;50.986;6.990;2023-04-03T15:22:05;5.85;;;1.35;;
68089;SDS011;54880;50.986;6.990;2023-04-03T15:24:30;5.40;;;1.13;;
68089;SDS011;54880;50.986;6.990;2023-04-03T15:26:56;5.33;;;0.80;;
68089;SDS011;54880;50.986;6.990;2023-04-03T15:29:21;4.93;;;1.33;;
68089;SDS011;54880;50.986;6.990;2023-04-03T15:31:46;5.70;;;1.67;;
68089;SDS011;54880;50.986;6.990;2023-04-03T15:34:11;4.70;;;1.20;;
68089;SDS011;54880;50.986;6.990;2023-04-03T15:36:37;4.60;;;1.23;;
68089;SDS011;54880;50.986;6.990;2023-04-03T15:39:02;5.33;;;1.40;;
68089;SDS011;54880;50.986;6.990;2023-04-03T15:41:27;5.90;;;1.43;;
68089;SDS011;54880;50.986;6.990;2023-04-03T15:43:52;4.73;;;1.10;;
68089;SDS011;54880;50.986;6.990;2023-04-03T15:46:18;5.83;;;1.10;;
68089;SDS011;54880;50.986;6.990;2023-04-03T15:48:43;5.90;;;1.57;;
68089;SDS011;54880;50.986;6.990;2023-04-03T15:51:09;4.68;;;1.20;;
68089;SDS011;54880;50.986;6.990;2023-04-03T15:53:35;6.03;;;1.27;;
68089;SDS011;54880;50.986;6.990;2023-04-03T15:56:00;5.40;;;1.27;;
68089;SDS011;54880;50.986;6.990;2023-04-03T15:58:25;4.80;;;1.40;;
68089;SDS011;54880;50.986;6.990;2023-04-03T16:00:50;5.33;;;1.70;;